createdAt,value
2023-05-22T00:00:19.435Z,13.53
2023-05-22T00:02:46.606Z,13.79
2023-05-22T00:05:14.783Z,13.90
2023-05-22T00:07:46.048Z,13.83
2023-05-22T00:10:12.992Z,13.80
2023-05-22T00:12:40.444Z,13.96
2023-05-22T00:15:07.885Z,13.71
2023-05-22T00:17:35.532Z,13.73
2023-05-22T00:20:11.082Z,13.71
2023-05-22T00:22:39.156Z,13.99
2023-05-22T00:25:07.377Z,13.95
2023-05-22T00:27:34.470Z,13.60
2023-05-22T00:30:01.741Z,13.81
2023-05-22T00:32:28.935Z,13.98
2023-05-22T00:34:56.834Z,14.00
2023-05-22T00:37:23.815Z,14.03
2023-05-22T00:39:50.855Z,13.92
2023-05-22T00:42:18.712Z,13.72
2023-05-22T00:44:46.078Z,13.94
2023-05-22T00:47:13.124Z,13.93
2023-05-22T00:49:40.792Z,13.76
2023-05-22T00:52:09.383Z,13.77
2023-05-22T00:54:36.722Z,13.75
2023-05-22T00:57:04.403Z,13.51
2023-05-22T00:59:31.543Z,13.55
2023-05-22T01:01:58.799Z,13.57
2023-05-22T01:04:26.357Z,13.52
2023-05-22T01:06:55.168Z,13.57
2023-05-22T01:09:25.662Z,13.48
2023-05-22T01:11:58.540Z,13.49
2023-05-22T01:14:41.348Z,13.50
2023-05-22T01:17:25.973Z,13.38
2023-05-22T01:20:07.365Z,13.31
2023-05-22T01:22:58.719Z,13.21
2023-05-22T01:25:41.259Z,13.06
2023-05-22T01:28:26.450Z,12.98
2023-05-22T01:31:04.392Z,13.01
2023-05-22T01:33:37.392Z,12.98
2023-05-22T01:36:07.875Z,12.52
2023-05-22T01:38:35.227Z,12.74
2023-05-22T01:41:02.149Z,12.62
2023-05-22T01:43:29.447Z,12.87
2023-05-22T01:45:56.275Z,12.84
2023-05-22T01:48:23.176Z,12.64
2023-05-22T01:50:52.703Z,12.72
2023-05-22T01:53:37.133Z,12.67
2023-05-22T01:56:10.292Z,12.62
2023-05-22T01:58:49.381Z,12.68
2023-05-22T02:01:19.538Z,12.42
2023-05-22T02:03:52.100Z,12.53
2023-05-22T02:06:19.953Z,12.04
2023-05-22T02:08:47.472Z,12.53
2023-05-22T02:11:16.755Z,12.73
2023-05-22T02:13:43.860Z,12.57
2023-05-22T02:16:12.316Z,12.47
2023-05-22T02:18:41.794Z,12.45
2023-05-22T02:21:08.819Z,12.39
2023-05-22T02:23:36.203Z,12.54
2023-05-22T02:26:03.272Z,12.40
2023-05-22T02:28:29.968Z,12.52
2023-05-22T02:30:57.196Z,12.47
2023-05-22T02:33:23.981Z,12.27
2023-05-22T02:35:50.746Z,12.61
2023-05-22T02:38:18.598Z,12.64
2023-05-22T02:40:47.209Z,12.19
2023-05-22T02:43:14.434Z,12.69
2023-05-22T02:45:41.656Z,12.72
2023-05-22T02:48:08.723Z,12.66
2023-05-22T02:50:35.659Z,12.68
2023-05-22T02:53:02.327Z,12.57
2023-05-22T02:55:28.986Z,12.69
2023-05-22T02:57:55.958Z,12.68
2023-05-22T03:00:23.159Z,12.68
2023-05-22T03:02:49.930Z,12.47
2023-05-22T03:05:18.019Z,12.67
2023-05-22T03:07:48.367Z,12.50
2023-05-22T03:10:16.029Z,12.16
2023-05-22T03:12:43.013Z,12.36
2023-05-22T03:15:11.189Z,12.52
2023-05-22T03:17:38.051Z,12.60
2023-05-22T03:20:05.556Z,12.56
2023-05-22T03:22:32.703Z,12.91
2023-05-22T03:24:59.752Z,12.96
2023-05-22T03:27:26.790Z,12.72
2023-05-22T03:29:53.847Z,12.98
2023-05-22T03:32:20.591Z,12.99
2023-05-22T03:34:47.662Z,12.81
2023-05-22T03:37:15.007Z,13.07
2023-05-22T03:39:41.758Z,13.26
2023-05-22T03:42:08.582Z,13.25
2023-05-22T03:44:35.319Z,13.70
2023-05-22T03:47:02.090Z,13.80
2023-05-22T03:49:28.751Z,14.34
2023-05-22T03:51:55.348Z,15.20
2023-05-22T03:54:22.148Z,15.85
2023-05-22T03:56:49.418Z,15.83
2023-05-22T03:59:16.506Z,15.78
2023-05-22T04:01:44.213Z,15.61
2023-05-22T04:04:12.288Z,15.37
2023-05-22T04:06:43.652Z,14.81
2023-05-22T04:09:12.158Z,14.10
2023-05-22T04:11:43.312Z,14.30
2023-05-22T04:14:10.537Z,14.28
2023-05-22T04:16:40.602Z,14.03
2023-05-22T04:19:09.850Z,13.95
2023-05-22T04:21:38.528Z,14.00
2023-05-22T04:24:07.549Z,13.95
2023-05-22T04:26:34.756Z,13.83
2023-05-22T04:29:02.334Z,14.34
2023-05-22T04:31:29.408Z,14.69
2023-05-22T04:33:56.694Z,14.64
2023-05-22T04:36:26.236Z,14.12
2023-05-22T04:38:54.164Z,14.21
2023-05-22T04:41:22.759Z,14.95
2023-05-22T04:43:49.684Z,14.46
2023-05-22T04:46:16.555Z,15.36
2023-05-22T04:48:43.560Z,15.89
2023-05-22T04:51:10.554Z,16.94
2023-05-22T04:53:38.862Z,17.30
2023-05-22T04:56:06.666Z,17.34
2023-05-22T04:58:33.807Z,17.89
2023-05-22T05:01:00.785Z,18.57
2023-05-22T05:03:28.742Z,19.66
2023-05-22T05:05:59.926Z,20.12
2023-05-22T05:08:26.926Z,20.34
2023-05-22T05:10:53.940Z,20.65
2023-05-22T05:13:21.450Z,21.08
2023-05-22T05:15:49.076Z,21.46
2023-05-22T05:18:17.179Z,20.85
2023-05-22T05:20:45.286Z,21.24
2023-05-22T05:23:12.382Z,21.28
2023-05-22T05:25:39.548Z,21.51
2023-05-22T05:28:10.880Z,21.29
2023-05-22T05:31:19.008Z,21.00
2023-05-22T05:33:47.001Z,21.09
2023-05-22T05:36:15.005Z,21.57
2023-05-22T05:38:42.626Z,21.36
2023-05-22T05:41:09.835Z,20.92
2023-05-22T05:43:37.221Z,20.90
2023-05-22T05:46:04.162Z,21.27
2023-05-22T05:48:40.467Z,21.02
2023-05-22T05:51:07.682Z,21.09
2023-05-22T05:53:37.045Z,20.76
2023-05-22T05:56:16.896Z,20.67
2023-05-22T05:58:46.828Z,20.62
2023-05-22T06:01:14.492Z,20.86
2023-05-22T06:03:41.892Z,20.77
2023-05-22T06:06:08.803Z,20.70
2023-05-22T06:08:35.669Z,20.25
2023-05-22T06:11:03.425Z,20.09
2023-05-22T06:13:30.624Z,20.10
2023-05-22T06:15:59.587Z,19.38
2023-05-22T06:18:28.995Z,19.77
2023-05-22T06:20:57.824Z,19.54
2023-05-22T06:23:27.268Z,19.28
2023-05-22T06:25:54.137Z,19.28
2023-05-22T06:28:24.493Z,19.17
2023-05-22T06:30:51.832Z,19.18
2023-05-22T06:33:18.709Z,19.00
2023-05-22T06:35:45.489Z,19.11
2023-05-22T06:38:12.143Z,19.37
2023-05-22T06:40:38.960Z,19.32
2023-05-22T06:43:05.798Z,19.19
2023-05-22T06:45:32.487Z,19.46
2023-05-22T06:47:59.429Z,19.63
2023-05-22T06:50:26.231Z,19.78
2023-05-22T06:52:53.802Z,19.83
2023-05-22T06:55:20.532Z,20.01
2023-05-22T06:57:47.516Z,19.93
2023-05-22T07:00:20.929Z,20.05
2023-05-22T07:02:48.673Z,19.92
2023-05-22T07:05:15.803Z,20.02
2023-05-22T07:07:43.789Z,20.03
2023-05-22T07:10:11.023Z,20.07
2023-05-22T07:12:37.883Z,19.92
2023-05-22T07:15:04.860Z,20.10
2023-05-22T07:17:32.649Z,20.28
2023-05-22T07:19:59.897Z,20.13
2023-05-22T07:22:27.091Z,20.42
2023-05-22T07:24:53.741Z,20.63
2023-05-22T07:27:20.821Z,21.14
2023-05-22T07:29:47.576Z,21.21
2023-05-22T07:32:15.319Z,21.33
2023-05-22T07:34:51.540Z,21.44
2023-05-22T07:37:18.736Z,21.86
2023-05-22T07:39:46.868Z,21.81
2023-05-22T07:42:15.169Z,21.77
2023-05-22T07:44:42.193Z,21.82
2023-05-22T07:47:09.141Z,21.55
2023-05-22T07:49:36.383Z,20.88
2023-05-22T07:52:10.747Z,20.80
2023-05-22T07:54:37.917Z,21.07
2023-05-22T07:57:05.060Z,21.26
2023-05-22T07:59:34.146Z,21.43
2023-05-22T08:02:03.076Z,21.38
2023-05-22T08:04:30.159Z,20.98
2023-05-22T08:07:00.160Z,20.65
2023-05-22T08:09:26.919Z,20.54
2023-05-22T08:11:53.977Z,20.96
2023-05-22T08:14:22.494Z,21.26
2023-05-22T08:16:49.876Z,20.96
2023-05-22T08:19:16.725Z,21.70
2023-05-22T08:21:43.952Z,21.84
2023-05-22T08:24:10.769Z,21.81
2023-05-22T08:26:38.964Z,21.41
2023-05-22T08:29:05.710Z,21.44
2023-05-22T08:31:34.414Z,21.25
2023-05-22T08:34:02.880Z,20.94
2023-05-22T08:36:31.672Z,20.93
2023-05-22T08:38:58.454Z,21.09
2023-05-22T08:41:25.261Z,21.42
2023-05-22T08:43:51.974Z,21.63
2023-05-22T08:46:20.162Z,21.59
2023-05-22T08:48:47.961Z,21.77
2023-05-22T08:51:19.117Z,21.70
2023-05-22T08:53:47.651Z,21.93
2023-05-22T08:56:15.152Z,21.74
2023-05-22T08:58:42.399Z,21.90
2023-05-22T09:01:09.309Z,21.74
2023-05-22T09:03:37.043Z,21.73
2023-05-22T09:06:04.799Z,21.07
2023-05-22T09:08:31.538Z,20.89
2023-05-22T09:10:58.255Z,20.90
2023-05-22T09:13:33.949Z,20.91
2023-05-22T09:16:14.689Z,21.13
2023-05-22T09:18:44.645Z,21.39
2023-05-22T09:21:28.970Z,21.40
2023-05-22T09:24:03.304Z,20.71
2023-05-22T09:26:30.261Z,20.49
2023-05-22T09:28:59.773Z,20.73
2023-05-22T09:31:27.686Z,20.62
2023-05-22T09:33:59.228Z,20.32
2023-05-22T09:36:33.247Z,20.27
2023-05-22T09:39:04.807Z,20.28
2023-05-22T09:41:37.488Z,20.13
2023-05-22T09:44:12.872Z,20.60
2023-05-22T09:46:45.512Z,20.90
2023-05-22T09:49:15.796Z,20.93
2023-05-22T09:51:48.056Z,21.43
2023-05-22T09:54:16.540Z,21.42
2023-05-22T09:56:44.362Z,21.53
2023-05-22T09:59:13.974Z,21.61
2023-05-22T10:01:42.754Z,21.65
2023-05-22T10:04:16.758Z,21.62
2023-05-22T10:06:50.439Z,21.45
2023-05-22T10:09:19.664Z,21.37
2023-05-22T10:11:48.046Z,21.43
2023-05-22T10:14:15.856Z,20.91
2023-05-22T10:16:47.215Z,21.05
2023-05-22T10:19:14.554Z,20.91
2023-05-22T10:21:41.782Z,20.74
2023-05-22T10:24:09.225Z,20.62
2023-05-22T10:26:36.390Z,20.72
2023-05-22T10:29:18.203Z,20.66
2023-05-22T10:31:56.062Z,20.69
2023-05-22T10:34:51.188Z,20.07
2023-05-22T10:37:33.143Z,20.31
2023-05-22T10:40:05.409Z,20.00
2023-05-22T10:42:32.663Z,19.86
2023-05-22T10:45:01.312Z,19.52
2023-05-22T10:47:28.367Z,19.05
2023-05-22T10:50:12.167Z,18.99
2023-05-22T10:52:40.020Z,19.21
2023-05-22T10:55:08.826Z,19.09
2023-05-22T10:57:38.555Z,19.25
2023-05-22T11:00:09.737Z,19.57
2023-05-22T11:02:42.481Z,20.01
2023-05-22T11:05:21.886Z,20.40
2023-05-22T11:07:49.229Z,20.26
2023-05-22T11:10:26.517Z,20.59
2023-05-22T11:13:19.623Z,20.44
2023-05-22T11:15:46.903Z,20.34
2023-05-22T11:18:16.553Z,20.83
2023-05-22T11:20:44.463Z,21.14
2023-05-22T11:23:11.407Z,21.39
2023-05-22T11:25:40.512Z,21.17
2023-05-22T11:28:08.101Z,20.93
2023-05-22T11:30:35.312Z,20.49
2023-05-22T11:33:02.548Z,20.18
2023-05-22T11:35:29.833Z,19.87
2023-05-22T11:37:57.154Z,19.28
2023-05-22T11:40:26.016Z,18.64
2023-05-22T11:42:54.113Z,18.22
2023-05-22T11:45:21.890Z,17.71
2023-05-22T11:47:49.094Z,16.92
2023-05-22T11:52:50.290Z,16.22
2023-05-22T11:55:17.002Z,16.00
2023-05-22T11:57:44.370Z,16.18
2023-05-22T12:00:12.140Z,16.08
2023-05-22T12:02:39.633Z,15.90
2023-05-22T12:05:11.918Z,15.70
2023-05-22T12:07:38.743Z,15.86
2023-05-22T12:10:11.368Z,16.04
2023-05-22T12:12:39.467Z,15.29
2023-05-22T12:15:08.730Z,15.92
2023-05-22T12:17:39.834Z,15.60
2023-05-22T12:20:07.420Z,16.14
2023-05-22T12:22:34.174Z,16.19
2023-05-22T12:25:01.093Z,16.26
2023-05-22T12:27:33.163Z,16.63
2023-05-22T12:30:10.464Z,16.89
2023-05-22T12:32:37.335Z,17.17
2023-05-22T12:35:04.365Z,17.04
2023-05-22T12:40:03.485Z,17.06
2023-05-22T12:42:30.122Z,16.95
2023-05-22T12:44:58.379Z,17.02
2023-05-22T12:47:25.671Z,17.03
2023-05-22T12:49:53.093Z,17.04
2023-05-22T12:52:20.034Z,17.27
2023-05-22T12:54:47.082Z,17.54
2023-05-22T12:57:13.929Z,17.79
2023-05-22T12:59:40.811Z,17.98
2023-05-22T13:02:07.680Z,18.24
2023-05-22T13:04:34.499Z,18.51
2023-05-22T13:07:01.790Z,18.71
2023-05-22T13:09:28.541Z,18.81
2023-05-22T13:11:55.658Z,18.84
2023-05-22T13:14:22.815Z,18.80
2023-05-22T13:16:49.497Z,18.70
2023-05-22T13:19:16.666Z,18.69
2023-05-22T13:21:43.724Z,18.83
2023-05-22T13:24:11.032Z,18.91
2023-05-22T13:26:37.681Z,18.87
2023-05-22T13:29:04.427Z,18.83
2023-05-22T13:31:33.385Z,19.02
2023-05-22T13:34:02.935Z,18.71
2023-05-22T13:36:30.285Z,18.84
2023-05-22T13:38:57.289Z,19.02
2023-05-22T13:41:23.971Z,19.27
2023-05-22T13:43:50.791Z,19.50
2023-05-22T13:46:18.364Z,19.86
2023-05-22T13:48:45.838Z,20.20
2023-05-22T13:51:12.542Z,20.59
2023-05-22T13:53:39.297Z,21.14
2023-05-22T13:56:06.219Z,21.57
2023-05-22T13:58:32.826Z,21.83
2023-05-22T14:00:59.534Z,21.82
2023-05-22T14:03:26.238Z,22.19
2023-05-22T14:05:53.118Z,22.37
2023-05-22T14:08:20.047Z,22.31
2023-05-22T14:10:46.841Z,22.29
2023-05-22T14:13:13.652Z,22.03
2023-05-22T14:15:40.741Z,21.86
2023-05-22T14:18:07.641Z,22.20
2023-05-22T14:20:34.464Z,22.36
2023-05-22T14:23:01.124Z,22.56
2023-05-22T14:25:27.816Z,22.77
2023-05-22T14:27:54.553Z,22.79
2023-05-22T14:30:21.319Z,22.81
2023-05-22T14:32:48.898Z,22.96
2023-05-22T14:35:16.790Z,22.98
2023-05-22T14:37:45.664Z,22.89
2023-05-22T14:40:12.415Z,21.93
2023-05-22T14:42:39.154Z,21.09
2023-05-22T14:45:06.295Z,20.25
2023-05-22T14:47:33.040Z,19.74
2023-05-22T14:50:10.282Z,19.29
2023-05-22T14:52:45.173Z,18.99
2023-05-22T14:55:11.878Z,18.81
2023-05-22T14:57:38.602Z,18.06
2023-05-22T15:00:12.586Z,17.45
2023-05-22T15:02:40.003Z,17.03
2023-05-22T15:05:10.193Z,16.87
2023-05-22T15:10:08.525Z,16.96
2023-05-22T15:12:44.290Z,16.89
2023-05-22T15:15:11.425Z,16.91
2023-05-22T15:17:39.398Z,17.03
2023-05-22T15:20:07.893Z,17.18
2023-05-22T15:22:34.695Z,17.26
2023-05-22T15:25:05.704Z,17.27
2023-05-22T15:27:33.512Z,17.17
2023-05-22T15:30:00.462Z,17.16
2023-05-22T15:32:27.459Z,17.20
2023-05-22T15:34:54.083Z,17.22
2023-05-22T15:37:20.952Z,17.31
2023-05-22T15:39:47.615Z,17.35
2023-05-22T15:42:14.514Z,17.29
2023-05-22T15:44:41.347Z,17.38
2023-05-22T15:47:08.005Z,17.38
2023-05-22T15:49:34.751Z,17.54
2023-05-22T15:52:02.893Z,17.78
2023-05-22T15:54:29.619Z,17.86
2023-05-22T15:56:56.472Z,17.94
2023-05-22T15:59:23.117Z,17.99
2023-05-22T16:01:50.046Z,17.99
2023-05-22T16:04:17.171Z,18.24
2023-05-22T16:06:43.871Z,18.14
2023-05-22T16:09:11.172Z,17.91
2023-05-22T16:11:38.092Z,17.74
2023-05-22T16:14:05.025Z,17.60
2023-05-22T16:16:31.821Z,17.55
2023-05-22T16:18:58.716Z,17.55
2023-05-22T16:21:25.570Z,17.56
2023-05-22T16:23:52.660Z,17.54
2023-05-22T16:26:19.529Z,17.22
2023-05-22T16:28:46.337Z,17.20
2023-05-22T16:31:14.062Z,17.18
2023-05-22T16:33:40.769Z,16.97
2023-05-22T16:36:07.678Z,16.73
2023-05-22T16:38:34.407Z,16.73
2023-05-22T16:41:01.427Z,16.77
2023-05-22T16:43:28.216Z,16.59
2023-05-22T16:45:55.105Z,16.44
2023-05-22T16:48:21.949Z,16.27
2023-05-22T16:50:48.841Z,16.20
2023-05-22T16:53:18.439Z,16.03
2023-05-22T16:55:48.179Z,16.02
2023-05-22T16:58:14.972Z,16.01
2023-05-22T17:00:42.036Z,15.92
2023-05-22T17:03:10.229Z,15.86
2023-05-22T17:05:40.794Z,15.80
2023-05-22T17:08:28.590Z,15.74
2023-05-22T17:11:10.441Z,15.61
2023-05-22T17:13:40.330Z,15.46
2023-05-22T17:16:08.082Z,15.33
2023-05-22T17:18:35.886Z,15.33
2023-05-22T17:21:09.817Z,14.79
2023-05-22T17:23:38.060Z,14.75
2023-05-22T17:26:05.572Z,14.56
2023-05-22T17:28:32.948Z,14.92
2023-05-22T17:31:02.921Z,14.78
2023-05-22T17:33:33.257Z,14.09
2023-05-22T17:36:04.524Z,14.12
2023-05-22T17:38:40.564Z,14.56
2023-05-22T17:41:10.739Z,14.07
2023-05-22T17:43:42.134Z,14.11
2023-05-22T17:46:10.746Z,13.98
2023-05-22T17:48:41.793Z,14.19
2023-05-22T17:51:12.831Z,13.48
2023-05-22T17:53:47.976Z,14.22
2023-05-22T17:56:14.769Z,13.79
2023-05-22T17:58:42.033Z,14.10
2023-05-22T18:01:09.351Z,14.15
2023-05-22T18:03:36.501Z,13.99
2023-05-22T18:06:03.881Z,13.94
2023-05-22T18:08:31.744Z,13.61
2023-05-22T18:10:59.188Z,13.38
2023-05-22T18:13:26.523Z,13.80
2023-05-22T18:15:54.902Z,13.54
2023-05-22T18:18:22.702Z,13.53
2023-05-22T18:20:50.526Z,13.67
2023-05-22T18:23:18.343Z,13.63
2023-05-22T18:25:48.904Z,13.46
2023-05-22T18:28:20.455Z,13.82
2023-05-22T18:30:56.692Z,13.35
2023-05-22T18:33:25.541Z,13.47
2023-05-22T18:35:57.688Z,13.91
2023-05-22T18:41:13.762Z,13.25
2023-05-22T18:43:51.084Z,13.63
2023-05-22T18:46:24.818Z,13.58
2023-05-22T18:48:52.044Z,13.37
2023-05-22T18:51:20.090Z,13.60
2023-05-22T18:53:47.235Z,13.60
2023-05-22T18:56:13.964Z,13.70
2023-05-22T18:58:41.500Z,13.73
2023-05-22T19:01:12.379Z,13.78
2023-05-22T19:03:40.174Z,13.75
2023-05-22T19:06:07.223Z,13.77
2023-05-22T19:08:34.756Z,13.77
2023-05-22T19:11:01.483Z,13.73
2023-05-22T19:13:29.310Z,13.66
2023-05-22T19:15:57.390Z,13.55
2023-05-22T19:18:24.692Z,13.65
2023-05-22T19:20:51.464Z,13.62
2023-05-22T19:23:18.669Z,13.53
2023-05-22T19:25:45.472Z,13.54
2023-05-22T19:28:12.216Z,13.50
2023-05-22T19:30:39.214Z,13.40
2023-05-22T19:33:08.707Z,13.33
2023-05-22T19:35:35.758Z,13.16
2023-05-22T19:38:02.490Z,13.21
2023-05-22T19:40:29.182Z,13.24
2023-05-22T19:42:55.979Z,13.34
2023-05-22T19:45:22.985Z,13.35
2023-05-22T19:47:49.714Z,13.10
2023-05-22T19:50:17.476Z,13.06
2023-05-22T19:52:44.680Z,13.39
2023-05-22T19:55:11.568Z,13.36
2023-05-22T19:57:38.195Z,13.33
2023-05-22T20:00:07.597Z,13.35
2023-05-22T20:02:34.418Z,13.20
2023-05-22T20:05:01.793Z,13.08
2023-05-22T20:07:28.880Z,12.89
2023-05-22T20:09:55.632Z,12.95
2023-05-22T20:12:22.293Z,12.95
2023-05-22T20:14:48.973Z,12.93
2023-05-22T20:17:15.617Z,12.70
2023-05-22T20:19:45.008Z,12.71
2023-05-22T20:22:11.701Z,12.75
2023-05-22T20:24:38.362Z,12.73
2023-05-22T20:27:06.395Z,12.75
2023-05-22T20:29:33.446Z,12.69
2023-05-22T20:32:00.220Z,12.69
2023-05-22T20:34:28.603Z,12.65
2023-05-22T20:36:55.524Z,12.65
2023-05-22T20:39:22.453Z,12.70
2023-05-22T20:41:52.019Z,12.67
2023-05-22T20:44:23.898Z,12.63
2023-05-22T20:46:54.265Z,12.57
2023-05-22T20:49:21.569Z,12.57
2023-05-22T20:51:50.093Z,12.41
2023-05-22T20:54:17.863Z,12.47
2023-05-22T20:56:44.564Z,12.48
2023-05-22T20:59:11.542Z,12.31
2023-05-22T21:01:38.405Z,12.44
2023-05-22T21:04:05.253Z,12.39
2023-05-22T21:06:32.021Z,12.43
2023-05-22T21:09:01.867Z,12.42
2023-05-22T21:11:28.636Z,12.38
2023-05-22T21:13:55.286Z,12.28
2023-05-22T21:16:21.963Z,12.28
2023-05-22T21:18:49.120Z,12.38
2023-05-22T21:21:21.604Z,12.43
2023-05-22T21:23:49.216Z,12.34
2023-05-22T21:26:16.776Z,12.16
2023-05-22T21:28:44.324Z,12.26
2023-05-22T21:31:15.080Z,12.13
2023-05-22T21:33:42.217Z,11.72
2023-05-22T21:36:09.119Z,11.94
2023-05-22T21:38:36.352Z,11.87
2023-05-22T21:41:03.467Z,11.78
2023-05-22T21:43:30.103Z,11.65
2023-05-22T21:45:56.708Z,11.50
2023-05-22T21:48:23.470Z,11.50
2023-05-22T21:50:50.308Z,11.46
2023-05-22T21:53:17.234Z,11.35
2023-05-22T21:55:43.852Z,11.40
2023-05-22T21:58:10.662Z,11.24
2023-05-22T22:00:38.061Z,11.22
2023-05-22T22:03:05.499Z,11.33
2023-05-22T22:05:32.955Z,11.29
2023-05-22T22:07:59.587Z,11.33
2023-05-22T22:10:26.303Z,11.32
2023-05-22T22:12:52.916Z,11.39
2023-05-22T22:15:19.656Z,11.36
2023-05-22T22:17:47.625Z,11.44
2023-05-22T22:20:14.373Z,11.38
2023-05-22T22:22:41.231Z,11.46
2023-05-22T22:25:08.663Z,11.53
2023-05-22T22:27:36.962Z,11.43
2023-05-22T22:30:03.845Z,11.42
2023-05-22T22:32:30.514Z,11.34
2023-05-22T22:34:57.344Z,11.34
2023-05-22T22:37:24.067Z,11.32
2023-05-22T22:39:50.728Z,11.23
2023-05-22T22:42:17.432Z,11.23
2023-05-22T22:44:44.526Z,11.15
2023-05-22T22:47:11.283Z,11.18
2023-05-22T22:49:38.450Z,11.21
2023-05-22T22:52:05.516Z,11.28
2023-05-22T22:54:32.404Z,11.33
2023-05-22T22:56:59.142Z,11.38
2023-05-22T22:59:25.920Z,11.33
2023-05-22T23:01:52.683Z,11.31
2023-05-22T23:04:19.481Z,11.27
2023-05-22T23:06:46.270Z,11.28
2023-05-22T23:09:13.187Z,11.74
2023-05-22T23:11:40.098Z,11.59
2023-05-22T23:14:10.223Z,11.59
2023-05-22T23:16:38.212Z,11.43
2023-05-22T23:19:05.819Z,11.49
2023-05-22T23:21:33.724Z,11.40
2023-05-22T23:24:01.709Z,11.54
2023-05-22T23:26:28.445Z,11.60
2023-05-22T23:28:55.144Z,11.62
2023-05-22T23:31:26.012Z,11.62
2023-05-22T23:33:53.349Z,11.64
2023-05-22T23:36:20.076Z,11.60
2023-05-22T23:38:47.647Z,11.55
2023-05-22T23:41:18.828Z,11.67
2023-05-22T23:43:46.249Z,11.60
2023-05-22T23:46:14.283Z,11.48
2023-05-22T23:48:41.791Z,11.36
2023-05-22T23:51:14.461Z,11.21
2023-05-22T23:53:42.339Z,11.31
2023-05-22T23:56:09.926Z,11.25
2023-05-22T23:58:39.658Z,11.31
